Terminal Aerodrome Forecast
Issued by NWS Blacksburg, VA

Home | Current Version | Previous Version | Text Only | Print | Product List | Glossary On
Versions: 1 2 3 4 5 6 7 8 9 10 11 12 13 14 15 16 17 18 19 20 21 22 23 24 25 26 27 28 29 30 31 32 33 34
796
FTUS41 KRNK 161120
TAFROA
TAF
KROA 161120Z 1612/1712 VRB03KT 5SM RA BR FEW006 OVC025
      TEMPO 1612/1616 3SM RA BR OVC006
     FM161700 29007KT P6SM BKN015
     FM161900 30013G22KT P6SM BKN050
     FM162200 30022G33KT P6SM SCT150=

USA.gov is the U.S. government's official web portal to all federal, state and local government web resources and services.